sensor_id;sensor_type;location;lat;lon;timestamp;P1;durP1;ratioP1;P2;durP2;ratioP2
13327;SDS011;6733;51.044;3.746;2022-12-18T00:01:05;90.47;;;55.33;;
13327;SDS011;6733;51.044;3.746;2022-12-18T00:03:41;86.17;;;53.67;;
13327;SDS011;6733;51.044;3.746;2022-12-18T00:06:07;89.10;;;53.33;;
13327;SDS011;6733;51.044;3.746;2022-12-18T00:08:34;79.17;;;53.10;;
13327;SDS011;6733;51.044;3.746;2022-12-18T00:11:05;85.40;;;53.30;;
13327;SDS011;6733;51.044;3.746;2022-12-18T00:13:32;79.63;;;51.27;;
13327;SDS011;6733;51.044;3.746;2022-12-18T00:16:03;85.73;;;52.13;;
13327;SDS011;6733;51.044;3.746;2022-12-18T00:18:30;79.53;;;49.43;;
13327;SDS011;6733;51.044;3.746;2022-12-18T00:20:58;77.37;;;48.20;;
13327;SDS011;6733;51.044;3.746;2022-12-18T00:23:29;77.17;;;46.70;;
13327;SDS011;6733;51.044;3.746;2022-12-18T00:26:04;72.33;;;44.63;;
13327;SDS011;6733;51.044;3.746;2022-12-18T00:28:32;80.07;;;46.43;;
13327;SDS011;6733;51.044;3.746;2022-12-18T00:31:02;71.83;;;45.23;;
13327;SDS011;6733;51.044;3.746;2022-12-18T00:33:30;71.53;;;42.60;;
13327;SDS011;6733;51.044;3.746;2022-12-18T00:36:02;66.20;;;41.10;;
13327;SDS011;6733;51.044;3.746;2022-12-18T00:38:33;68.40;;;43.13;;
13327;SDS011;6733;51.044;3.746;2022-12-18T00:40:59;71.80;;;42.33;;
13327;SDS011;6733;51.044;3.746;2022-12-18T00:43:26;70.37;;;41.50;;
13327;SDS011;6733;51.044;3.746;2022-12-18T00:45:52;69.27;;;41.77;;
13327;SDS011;6733;51.044;3.746;2022-12-18T00:48:18;72.80;;;41.27;;
13327;SDS011;6733;51.044;3.746;2022-12-18T00:50:44;69.80;;;42.77;;
13327;SDS011;6733;51.044;3.746;2022-12-18T00:53:11;72.47;;;42.20;;
13327;SDS011;6733;51.044;3.746;2022-12-18T00:55:38;67.07;;;40.97;;
13327;SDS011;6733;51.044;3.746;2022-12-18T00:58:05;69.93;;;42.27;;
13327;SDS011;6733;51.044;3.746;2022-12-18T01:00:32;65.10;;;39.07;;
13327;SDS011;6733;51.044;3.746;2022-12-18T01:02:58;69.90;;;42.60;;
13327;SDS011;6733;51.044;3.746;2022-12-18T01:05:25;74.53;;;40.67;;
13327;SDS011;6733;51.044;3.746;2022-12-18T01:07:51;68.07;;;40.63;;
13327;SDS011;6733;51.044;3.746;2022-12-18T01:10:17;68.80;;;39.63;;
13327;SDS011;6733;51.044;3.746;2022-12-18T01:12:43;63.90;;;39.57;;
13327;SDS011;6733;51.044;3.746;2022-12-18T01:15:10;67.53;;;40.00;;
13327;SDS011;6733;51.044;3.746;2022-12-18T01:17:38;61.27;;;37.13;;
13327;SDS011;6733;51.044;3.746;2022-12-18T01:20:04;61.03;;;37.67;;
13327;SDS011;6733;51.044;3.746;2022-12-18T01:22:31;66.07;;;39.20;;
13327;SDS011;6733;51.044;3.746;2022-12-18T01:24:57;67.57;;;37.30;;
13327;SDS011;6733;51.044;3.746;2022-12-18T01:27:23;64.73;;;37.87;;
13327;SDS011;6733;51.044;3.746;2022-12-18T01:29:49;65.03;;;38.47;;
13327;SDS011;6733;51.044;3.746;2022-12-18T01:32:15;65.40;;;37.67;;
13327;SDS011;6733;51.044;3.746;2022-12-18T01:34:42;63.87;;;37.33;;
13327;SDS011;6733;51.044;3.746;2022-12-18T01:37:08;66.53;;;38.17;;
13327;SDS011;6733;51.044;3.746;2022-12-18T01:39:34;60.77;;;34.80;;
13327;SDS011;6733;51.044;3.746;2022-12-18T01:42:02;59.30;;;34.45;;
13327;SDS011;6733;51.044;3.746;2022-12-18T01:52:41;56.10;;;33.20;;
13327;SDS011;6733;51.044;3.746;2022-12-18T01:55:09;55.13;;;32.83;;
13327;SDS011;6733;51.044;3.746;2022-12-18T01:57:37;52.97;;;31.40;;
13327;SDS011;6733;51.044;3.746;2022-12-18T02:00:06;53.40;;;31.03;;
13327;SDS011;6733;51.044;3.746;2022-12-18T02:02:39;51.33;;;30.80;;
13327;SDS011;6733;51.044;3.746;2022-12-18T02:05:06;49.22;;;29.40;;
13327;SDS011;6733;51.044;3.746;2022-12-18T02:07:45;52.00;;;30.40;;
13327;SDS011;6733;51.044;3.746;2022-12-18T02:10:31;52.30;;;29.67;;
13327;SDS011;6733;51.044;3.746;2022-12-18T02:13:17;52.35;;;31.65;;
13327;SDS011;6733;51.044;3.746;2022-12-18T02:16:25;52.35;;;30.40;;
13327;SDS011;6733;51.044;3.746;2022-12-18T02:19:06;50.80;;;28.80;;
13327;SDS011;6733;51.044;3.746;2022-12-18T02:21:54;52.27;;;30.20;;
13327;SDS011;6733;51.044;3.746;2022-12-18T02:24:50;53.45;;;30.70;;
13327;SDS011;6733;51.044;3.746;2022-12-18T02:27:36;48.53;;;30.40;;
13327;SDS011;6733;51.044;3.746;2022-12-18T02:30:05;53.65;;;30.83;;
13327;SDS011;6733;51.044;3.746;2022-12-18T02:32:51;50.70;;;30.67;;
13327;SDS011;6733;51.044;3.746;2022-12-18T02:35:48;48.35;;;28.63;;
13327;SDS011;6733;51.044;3.746;2022-12-18T02:38:45;50.67;;;30.08;;
13327;SDS011;6733;51.044;3.746;2022-12-18T02:41:40;49.72;;;28.42;;
13327;SDS011;6733;51.044;3.746;2022-12-18T02:44:41;48.17;;;29.05;;
13327;SDS011;6733;51.044;3.746;2022-12-18T02:47:41;45.35;;;26.02;;
13327;SDS011;6733;51.044;3.746;2022-12-18T02:50:50;49.80;;;27.95;;
13327;SDS011;6733;51.044;3.746;2022-12-18T02:56:18;47.75;;;27.52;;
13327;SDS011;6733;51.044;3.746;2022-12-18T03:07:09;40.78;;;26.33;;
13327;SDS011;6733;51.044;3.746;2022-12-18T03:09:42;46.88;;;26.83;;
13327;SDS011;6733;51.044;3.746;2022-12-18T03:15:15;40.80;;;24.88;;
13327;SDS011;6733;51.044;3.746;2022-12-18T03:17:56;44.55;;;26.13;;
13327;SDS011;6733;51.044;3.746;2022-12-18T03:20:29;44.03;;;25.17;;
13327;SDS011;6733;51.044;3.746;2022-12-18T03:23:04;40.42;;;25.20;;
13327;SDS011;6733;51.044;3.746;2022-12-18T03:25:40;45.05;;;26.73;;
13327;SDS011;6733;51.044;3.746;2022-12-18T03:28:13;41.88;;;26.05;;
13327;SDS011;6733;51.044;3.746;2022-12-18T03:30:43;44.47;;;28.13;;
13327;SDS011;6733;51.044;3.746;2022-12-18T03:33:16;48.78;;;27.15;;
13327;SDS011;6733;51.044;3.746;2022-12-18T03:35:45;46.08;;;25.48;;
13327;SDS011;6733;51.044;3.746;2022-12-18T03:38:12;41.13;;;25.20;;
13327;SDS011;6733;51.044;3.746;2022-12-18T03:41:01;41.50;;;25.27;;
13327;SDS011;6733;51.044;3.746;2022-12-18T03:46:30;47.40;;;28.35;;
13327;SDS011;6733;51.044;3.746;2022-12-18T03:52:02;43.05;;;25.00;;
13327;SDS011;6733;51.044;3.746;2022-12-18T03:54:52;41.70;;;24.30;;
13327;SDS011;6733;51.044;3.746;2022-12-18T03:57:22;42.90;;;24.45;;
13327;SDS011;6733;51.044;3.746;2022-12-18T03:59:52;41.80;;;24.77;;
13327;SDS011;6733;51.044;3.746;2022-12-18T04:02:22;41.78;;;25.05;;
13327;SDS011;6733;51.044;3.746;2022-12-18T04:04:51;42.00;;;24.70;;
13327;SDS011;6733;51.044;3.746;2022-12-18T04:07:20;42.95;;;24.77;;
13327;SDS011;6733;51.044;3.746;2022-12-18T04:09:48;42.10;;;24.85;;
13327;SDS011;6733;51.044;3.746;2022-12-18T04:12:18;43.40;;;24.20;;
13327;SDS011;6733;51.044;3.746;2022-12-18T04:14:44;41.63;;;24.17;;
13327;SDS011;6733;51.044;3.746;2022-12-18T04:17:10;39.45;;;25.35;;
13327;SDS011;6733;51.044;3.746;2022-12-18T04:19:36;39.15;;;24.38;;
13327;SDS011;6733;51.044;3.746;2022-12-18T04:22:02;43.55;;;24.88;;
13327;SDS011;6733;51.044;3.746;2022-12-18T04:24:28;42.40;;;23.98;;
13327;SDS011;6733;51.044;3.746;2022-12-18T04:26:54;43.70;;;25.40;;
13327;SDS011;6733;51.044;3.746;2022-12-18T04:29:21;40.50;;;24.58;;
13327;SDS011;6733;51.044;3.746;2022-12-18T04:31:47;48.00;;;26.88;;
13327;SDS011;6733;51.044;3.746;2022-12-18T04:34:13;44.08;;;24.48;;
13327;SDS011;6733;51.044;3.746;2022-12-18T04:36:39;43.55;;;24.30;;
13327;SDS011;6733;51.044;3.746;2022-12-18T04:39:05;39.95;;;24.35;;
13327;SDS011;6733;51.044;3.746;2022-12-18T04:41:31;42.78;;;24.00;;
13327;SDS011;6733;51.044;3.746;2022-12-18T04:43:57;44.22;;;26.08;;
13327;SDS011;6733;51.044;3.746;2022-12-18T04:46:23;39.55;;;24.45;;
13327;SDS011;6733;51.044;3.746;2022-12-18T04:48:49;40.47;;;23.40;;
13327;SDS011;6733;51.044;3.746;2022-12-18T04:51:15;40.53;;;23.80;;
13327;SDS011;6733;51.044;3.746;2022-12-18T04:53:42;39.45;;;23.77;;
13327;SDS011;6733;51.044;3.746;2022-12-18T04:56:09;42.13;;;24.58;;
13327;SDS011;6733;51.044;3.746;2022-12-18T04:58:38;38.80;;;23.60;;
13327;SDS011;6733;51.044;3.746;2022-12-18T05:01:05;38.58;;;24.38;;
13327;SDS011;6733;51.044;3.746;2022-12-18T05:03:35;38.13;;;22.42;;
13327;SDS011;6733;51.044;3.746;2022-12-18T05:06:03;39.38;;;23.23;;
13327;SDS011;6733;51.044;3.746;2022-12-18T05:08:29;38.95;;;24.38;;
13327;SDS011;6733;51.044;3.746;2022-12-18T05:10:59;40.17;;;23.98;;
13327;SDS011;6733;51.044;3.746;2022-12-18T05:13:26;40.33;;;24.50;;
13327;SDS011;6733;51.044;3.746;2022-12-18T05:15:52;42.58;;;22.95;;
13327;SDS011;6733;51.044;3.746;2022-12-18T05:18:19;35.35;;;24.25;;
13327;SDS011;6733;51.044;3.746;2022-12-18T05:20:45;37.40;;;22.13;;
13327;SDS011;6733;51.044;3.746;2022-12-18T05:23:11;36.53;;;22.45;;
13327;SDS011;6733;51.044;3.746;2022-12-18T05:25:37;35.78;;;23.10;;
13327;SDS011;6733;51.044;3.746;2022-12-18T05:28:04;36.47;;;22.17;;
13327;SDS011;6733;51.044;3.746;2022-12-18T05:30:30;35.72;;;21.80;;
13327;SDS011;6733;51.044;3.746;2022-12-18T05:32:56;38.67;;;22.48;;
13327;SDS011;6733;51.044;3.746;2022-12-18T05:35:22;37.67;;;21.40;;
13327;SDS011;6733;51.044;3.746;2022-12-18T05:37:48;35.35;;;22.00;;
13327;SDS011;6733;51.044;3.746;2022-12-18T05:40:14;39.78;;;23.10;;
13327;SDS011;6733;51.044;3.746;2022-12-18T05:42:40;40.28;;;23.33;;
13327;SDS011;6733;51.044;3.746;2022-12-18T05:45:07;37.05;;;22.75;;
13327;SDS011;6733;51.044;3.746;2022-12-18T05:47:33;35.65;;;21.52;;
13327;SDS011;6733;51.044;3.746;2022-12-18T05:49:59;33.90;;;20.80;;
13327;SDS011;6733;51.044;3.746;2022-12-18T05:52:25;36.80;;;21.70;;
13327;SDS011;6733;51.044;3.746;2022-12-18T05:54:51;35.97;;;21.08;;
13327;SDS011;6733;51.044;3.746;2022-12-18T05:57:17;34.90;;;20.52;;
13327;SDS011;6733;51.044;3.746;2022-12-18T05:59:44;34.53;;;22.98;;
13327;SDS011;6733;51.044;3.746;2022-12-18T06:02:10;34.33;;;20.80;;
13327;SDS011;6733;51.044;3.746;2022-12-18T06:04:36;35.20;;;22.02;;
13327;SDS011;6733;51.044;3.746;2022-12-18T06:07:02;35.17;;;21.98;;
13327;SDS011;6733;51.044;3.746;2022-12-18T06:09:28;37.28;;;22.10;;
13327;SDS011;6733;51.044;3.746;2022-12-18T06:11:55;35.17;;;22.17;;
13327;SDS011;6733;51.044;3.746;2022-12-18T06:14:21;34.95;;;21.95;;
13327;SDS011;6733;51.044;3.746;2022-12-18T06:16:47;36.72;;;22.10;;
13327;SDS011;6733;51.044;3.746;2022-12-18T06:19:15;37.40;;;21.83;;
13327;SDS011;6733;51.044;3.746;2022-12-18T06:21:42;34.53;;;20.90;;
13327;SDS011;6733;51.044;3.746;2022-12-18T06:24:08;32.78;;;20.80;;
13327;SDS011;6733;51.044;3.746;2022-12-18T06:26:36;32.70;;;21.40;;
13327;SDS011;6733;51.044;3.746;2022-12-18T06:29:04;35.58;;;21.50;;
13327;SDS011;6733;51.044;3.746;2022-12-18T06:31:30;34.70;;;20.87;;
13327;SDS011;6733;51.044;3.746;2022-12-18T06:33:57;30.10;;;19.75;;
13327;SDS011;6733;51.044;3.746;2022-12-18T06:36:23;32.50;;;19.67;;
13327;SDS011;6733;51.044;3.746;2022-12-18T06:38:49;31.85;;;20.15;;
13327;SDS011;6733;51.044;3.746;2022-12-18T06:41:16;31.35;;;20.33;;
13327;SDS011;6733;51.044;3.746;2022-12-18T06:43:44;30.60;;;19.70;;
13327;SDS011;6733;51.044;3.746;2022-12-18T06:46:10;32.42;;;20.45;;
13327;SDS011;6733;51.044;3.746;2022-12-18T06:48:37;33.30;;;21.17;;
13327;SDS011;6733;51.044;3.746;2022-12-18T06:51:03;29.35;;;19.48;;
13327;SDS011;6733;51.044;3.746;2022-12-18T06:53:30;30.90;;;18.77;;
13327;SDS011;6733;51.044;3.746;2022-12-18T06:56:04;26.70;;;17.77;;
13327;SDS011;6733;51.044;3.746;2022-12-18T06:58:32;31.17;;;19.27;;
13327;SDS011;6733;51.044;3.746;2022-12-18T07:01:05;29.80;;;19.13;;
13327;SDS011;6733;51.044;3.746;2022-12-18T07:03:32;28.40;;;19.10;;
13327;SDS011;6733;51.044;3.746;2022-12-18T07:05:58;32.97;;;19.27;;
13327;SDS011;6733;51.044;3.746;2022-12-18T07:08:24;33.65;;;19.52;;
13327;SDS011;6733;51.044;3.746;2022-12-18T07:10:51;28.60;;;18.00;;
13327;SDS011;6733;51.044;3.746;2022-12-18T07:13:17;28.77;;;18.73;;
13327;SDS011;6733;51.044;3.746;2022-12-18T07:15:43;27.30;;;18.45;;
13327;SDS011;6733;51.044;3.746;2022-12-18T07:18:09;30.05;;;18.10;;
13327;SDS011;6733;51.044;3.746;2022-12-18T07:20:36;27.33;;;18.67;;
13327;SDS011;6733;51.044;3.746;2022-12-18T07:23:02;29.58;;;19.00;;
13327;SDS011;6733;51.044;3.746;2022-12-18T07:25:34;29.85;;;18.90;;
13327;SDS011;6733;51.044;3.746;2022-12-18T07:28:00;29.10;;;19.40;;
13327;SDS011;6733;51.044;3.746;2022-12-18T07:30:27;29.27;;;19.50;;
13327;SDS011;6733;51.044;3.746;2022-12-18T07:32:53;29.75;;;18.63;;
13327;SDS011;6733;51.044;3.746;2022-12-18T07:35:19;27.25;;;17.48;;
13327;SDS011;6733;51.044;3.746;2022-12-18T07:37:45;28.20;;;18.25;;
13327;SDS011;6733;51.044;3.746;2022-12-18T07:40:11;25.15;;;18.30;;
13327;SDS011;6733;51.044;3.746;2022-12-18T07:42:38;34.63;;;22.40;;
13327;SDS011;6733;51.044;3.746;2022-12-18T07:45:04;32.60;;;21.77;;
13327;SDS011;6733;51.044;3.746;2022-12-18T07:47:30;30.95;;;21.30;;
13327;SDS011;6733;51.044;3.746;2022-12-18T07:49:59;27.40;;;18.27;;
13327;SDS011;6733;51.044;3.746;2022-12-18T07:52:25;26.63;;;18.52;;
13327;SDS011;6733;51.044;3.746;2022-12-18T07:54:52;29.05;;;19.25;;
13327;SDS011;6733;51.044;3.746;2022-12-18T07:57:18;27.92;;;18.17;;
13327;SDS011;6733;51.044;3.746;2022-12-18T07:59:44;28.48;;;18.00;;
13327;SDS011;6733;51.044;3.746;2022-12-18T08:02:10;26.60;;;17.10;;
13327;SDS011;6733;51.044;3.746;2022-12-18T08:04:36;26.80;;;17.75;;
13327;SDS011;6733;51.044;3.746;2022-12-18T08:07:02;26.83;;;17.40;;
13327;SDS011;6733;51.044;3.746;2022-12-18T08:09:29;24.75;;;17.33;;
13327;SDS011;6733;51.044;3.746;2022-12-18T08:11:55;27.90;;;18.80;;
13327;SDS011;6733;51.044;3.746;2022-12-18T08:14:21;28.70;;;20.05;;
13327;SDS011;6733;51.044;3.746;2022-12-18T08:16:47;30.90;;;19.63;;
13327;SDS011;6733;51.044;3.746;2022-12-18T08:19:13;31.50;;;18.10;;
13327;SDS011;6733;51.044;3.746;2022-12-18T08:21:39;28.95;;;18.52;;
13327;SDS011;6733;51.044;3.746;2022-12-18T08:24:05;27.88;;;18.63;;
13327;SDS011;6733;51.044;3.746;2022-12-18T08:26:32;26.20;;;17.45;;
13327;SDS011;6733;51.044;3.746;2022-12-18T08:28:59;28.08;;;18.60;;
13327;SDS011;6733;51.044;3.746;2022-12-18T08:31:25;28.85;;;18.48;;
13327;SDS011;6733;51.044;3.746;2022-12-18T08:33:53;31.55;;;19.17;;
13327;SDS011;6733;51.044;3.746;2022-12-18T08:36:20;32.33;;;18.33;;
13327;SDS011;6733;51.044;3.746;2022-12-18T08:38:47;28.00;;;18.35;;
13327;SDS011;6733;51.044;3.746;2022-12-18T08:41:14;27.65;;;18.08;;
13327;SDS011;6733;51.044;3.746;2022-12-18T08:43:41;31.42;;;18.45;;
13327;SDS011;6733;51.044;3.746;2022-12-18T08:46:27;28.02;;;18.25;;
13327;SDS011;6733;51.044;3.746;2022-12-18T08:48:58;26.63;;;18.05;;
13327;SDS011;6733;51.044;3.746;2022-12-18T08:51:24;22.77;;;17.20;;
13327;SDS011;6733;51.044;3.746;2022-12-18T08:53:50;27.45;;;17.50;;
13327;SDS011;6733;51.044;3.746;2022-12-18T08:56:16;26.15;;;18.38;;
13327;SDS011;6733;51.044;3.746;2022-12-18T08:58:42;25.98;;;20.02;;
13327;SDS011;6733;51.044;3.746;2022-12-18T09:01:09;30.63;;;20.85;;
13327;SDS011;6733;51.044;3.746;2022-12-18T09:03:37;28.00;;;17.63;;
13327;SDS011;6733;51.044;3.746;2022-12-18T09:06:04;28.33;;;17.90;;
13327;SDS011;6733;51.044;3.746;2022-12-18T09:08:31;25.58;;;17.58;;
13327;SDS011;6733;51.044;3.746;2022-12-18T09:10:57;26.52;;;18.45;;
13327;SDS011;6733;51.044;3.746;2022-12-18T09:13:23;27.80;;;20.92;;
13327;SDS011;6733;51.044;3.746;2022-12-18T09:15:50;25.88;;;18.65;;
13327;SDS011;6733;51.044;3.746;2022-12-18T09:18:18;26.80;;;18.55;;
13327;SDS011;6733;51.044;3.746;2022-12-18T09:20:46;25.92;;;17.95;;
13327;SDS011;6733;51.044;3.746;2022-12-18T09:23:12;26.75;;;17.05;;
13327;SDS011;6733;51.044;3.746;2022-12-18T09:25:39;27.63;;;17.52;;
13327;SDS011;6733;51.044;3.746;2022-12-18T09:28:06;25.48;;;16.50;;
13327;SDS011;6733;51.044;3.746;2022-12-18T09:30:40;25.17;;;16.60;;
13327;SDS011;6733;51.044;3.746;2022-12-18T09:33:08;22.92;;;17.15;;
13327;SDS011;6733;51.044;3.746;2022-12-18T09:35:37;24.90;;;16.33;;
13327;SDS011;6733;51.044;3.746;2022-12-18T09:38:04;24.08;;;16.90;;
13327;SDS011;6733;51.044;3.746;2022-12-18T09:40:35;24.73;;;16.10;;
13327;SDS011;6733;51.044;3.746;2022-12-18T09:43:05;23.85;;;16.00;;
13327;SDS011;6733;51.044;3.746;2022-12-18T09:45:40;26.63;;;16.83;;
13327;SDS011;6733;51.044;3.746;2022-12-18T09:48:52;26.25;;;17.58;;
13327;SDS011;6733;51.044;3.746;2022-12-18T09:51:05;22.25;;;15.85;;
13327;SDS011;6733;51.044;3.746;2022-12-18T09:53:41;22.95;;;16.13;;
13327;SDS011;6733;51.044;3.746;2022-12-18T09:56:22;23.48;;;17.25;;
13327;SDS011;6733;51.044;3.746;2022-12-18T09:58:55;24.60;;;16.30;;
13327;SDS011;6733;51.044;3.746;2022-12-18T10:01:25;25.95;;;17.90;;
13327;SDS011;6733;51.044;3.746;2022-12-18T10:03:53;25.38;;;17.52;;
13327;SDS011;6733;51.044;3.746;2022-12-18T10:14:14;23.20;;;17.23;;
13327;SDS011;6733;51.044;3.746;2022-12-18T10:19:59;26.73;;;16.83;;
13327;SDS011;6733;51.044;3.746;2022-12-18T10:25:40;24.43;;;17.17;;
13327;SDS011;6733;51.044;3.746;2022-12-18T10:28:26;28.77;;;17.53;;
13327;SDS011;6733;51.044;3.746;2022-12-18T10:30:54;22.85;;;15.75;;
13327;SDS011;6733;51.044;3.746;2022-12-18T10:33:22;24.38;;;16.95;;
13327;SDS011;6733;51.044;3.746;2022-12-18T10:35:50;26.63;;;17.20;;
13327;SDS011;6733;51.044;3.746;2022-12-18T10:40:53;24.77;;;18.77;;
13327;SDS011;6733;51.044;3.746;2022-12-18T10:43:22;27.37;;;17.40;;
13327;SDS011;6733;51.044;3.746;2022-12-18T10:45:58;27.17;;;17.40;;
13327;SDS011;6733;51.044;3.746;2022-12-18T10:48:25;21.03;;;15.90;;
13327;SDS011;6733;51.044;3.746;2022-12-18T10:50:52;23.50;;;16.30;;
13327;SDS011;6733;51.044;3.746;2022-12-18T10:53:20;23.70;;;17.23;;
13327;SDS011;6733;51.044;3.746;2022-12-18T10:55:49;27.77;;;17.37;;
13327;SDS011;6733;51.044;3.746;2022-12-18T11:03:42;25.07;;;16.87;;
13327;SDS011;6733;51.044;3.746;2022-12-18T11:06:13;23.67;;;16.97;;
13327;SDS011;6733;51.044;3.746;2022-12-18T11:08:58;24.57;;;17.10;;
13327;SDS011;6733;51.044;3.746;2022-12-18T11:11:26;23.93;;;17.20;;
13327;SDS011;6733;51.044;3.746;2022-12-18T11:16:30;28.70;;;18.93;;
13327;SDS011;6733;51.044;3.746;2022-12-18T11:21:59;26.63;;;19.43;;
13327;SDS011;6733;51.044;3.746;2022-12-18T11:24:29;25.30;;;18.43;;
13327;SDS011;6733;51.044;3.746;2022-12-18T11:26:58;25.87;;;17.27;;
13327;SDS011;6733;51.044;3.746;2022-12-18T11:29:36;26.03;;;18.70;;
13327;SDS011;6733;51.044;3.746;2022-12-18T11:34:44;26.87;;;18.57;;
13327;SDS011;6733;51.044;3.746;2022-12-18T11:37:13;25.10;;;18.43;;
13327;SDS011;6733;51.044;3.746;2022-12-18T11:39:45;26.87;;;18.03;;
13327;SDS011;6733;51.044;3.746;2022-12-18T11:42:32;25.97;;;19.37;;
13327;SDS011;6733;51.044;3.746;2022-12-18T11:47:58;21.10;;;15.83;;
13327;SDS011;6733;51.044;3.746;2022-12-18T11:50:44;24.33;;;15.60;;
13327;SDS011;6733;51.044;3.746;2022-12-18T11:53:22;21.33;;;16.47;;
13327;SDS011;6733;51.044;3.746;2022-12-18T11:56:11;20.60;;;14.63;;
13327;SDS011;6733;51.044;3.746;2022-12-18T11:58:56;21.83;;;14.37;;
13327;SDS011;6733;51.044;3.746;2022-12-18T12:06:59;23.53;;;16.00;;
13327;SDS011;6733;51.044;3.746;2022-12-18T12:09:40;20.80;;;15.03;;
13327;SDS011;6733;51.044;3.746;2022-12-18T12:12:23;23.43;;;16.23;;
13327;SDS011;6733;51.044;3.746;2022-12-18T12:20:53;25.30;;;16.30;;
13327;SDS011;6733;51.044;3.746;2022-12-18T12:26:33;24.73;;;16.97;;
13327;SDS011;6733;51.044;3.746;2022-12-18T12:39:50;25.67;;;16.63;;
13327;SDS011;6733;51.044;3.746;2022-12-18T12:42:29;28.20;;;18.37;;
13327;SDS011;6733;51.044;3.746;2022-12-18T12:45:34;24.07;;;17.17;;
13327;SDS011;6733;51.044;3.746;2022-12-18T12:48:07;23.10;;;16.53;;
13327;SDS011;6733;51.044;3.746;2022-12-18T12:50:42;26.70;;;17.83;;
13327;SDS011;6733;51.044;3.746;2022-12-18T12:53:13;29.73;;;20.50;;
13327;SDS011;6733;51.044;3.746;2022-12-18T12:56:09;26.47;;;18.07;;
13327;SDS011;6733;51.044;3.746;2022-12-18T12:58:43;26.73;;;19.17;;
13327;SDS011;6733;51.044;3.746;2022-12-18T13:01:54;27.73;;;21.07;;
13327;SDS011;6733;51.044;3.746;2022-12-18T13:06:43;28.33;;;18.93;;
13327;SDS011;6733;51.044;3.746;2022-12-18T13:09:15;28.57;;;18.80;;
13327;SDS011;6733;51.044;3.746;2022-12-18T13:11:45;30.10;;;20.00;;
13327;SDS011;6733;51.044;3.746;2022-12-18T13:14:35;28.23;;;19.10;;
13327;SDS011;6733;51.044;3.746;2022-12-18T13:19:50;30.60;;;20.13;;
13327;SDS011;6733;51.044;3.746;2022-12-18T13:22:34;29.30;;;19.47;;
13327;SDS011;6733;51.044;3.746;2022-12-18T13:28:05;31.60;;;20.90;;
13327;SDS011;6733;51.044;3.746;2022-12-18T13:48:32;33.50;;;20.97;;
13327;SDS011;6733;51.044;3.746;2022-12-18T13:51:03;31.77;;;22.03;;
13327;SDS011;6733;51.044;3.746;2022-12-18T13:53:39;31.97;;;20.30;;
13327;SDS011;6733;51.044;3.746;2022-12-18T13:56:14;32.57;;;21.30;;
13327;SDS011;6733;51.044;3.746;2022-12-18T13:59:03;35.47;;;22.57;;
13327;SDS011;6733;51.044;3.746;2022-12-18T14:01:42;36.47;;;22.57;;
13327;SDS011;6733;51.044;3.746;2022-12-18T14:04:23;33.47;;;21.67;;
13327;SDS011;6733;51.044;3.746;2022-12-18T14:06:56;35.00;;;22.23;;
13327;SDS011;6733;51.044;3.746;2022-12-18T14:09:28;34.73;;;22.03;;
13327;SDS011;6733;51.044;3.746;2022-12-18T14:11:56;38.47;;;24.57;;
13327;SDS011;6733;51.044;3.746;2022-12-18T14:14:42;37.33;;;21.73;;
13327;SDS011;6733;51.044;3.746;2022-12-18T14:17:12;33.50;;;22.37;;
13327;SDS011;6733;51.044;3.746;2022-12-18T14:19:47;36.43;;;21.90;;
13327;SDS011;6733;51.044;3.746;2022-12-18T14:22:16;35.20;;;22.73;;
13327;SDS011;6733;51.044;3.746;2022-12-18T14:24:44;38.47;;;23.20;;
13327;SDS011;6733;51.044;3.746;2022-12-18T14:27:12;34.80;;;21.10;;
13327;SDS011;6733;51.044;3.746;2022-12-18T14:29:50;33.17;;;21.07;;
13327;SDS011;6733;51.044;3.746;2022-12-18T14:32:17;36.50;;;20.43;;
13327;SDS011;6733;51.044;3.746;2022-12-18T14:34:49;33.73;;;21.00;;
13327;SDS011;6733;51.044;3.746;2022-12-18T14:37:20;33.83;;;22.30;;
13327;SDS011;6733;51.044;3.746;2022-12-18T14:39:57;36.77;;;22.23;;
13327;SDS011;6733;51.044;3.746;2022-12-18T14:42:24;39.07;;;23.27;;
13327;SDS011;6733;51.044;3.746;2022-12-18T14:47:58;37.90;;;21.10;;
13327;SDS011;6733;51.044;3.746;2022-12-18T14:50:25;36.93;;;21.63;;
13327;SDS011;6733;51.044;3.746;2022-12-18T14:52:51;34.67;;;21.47;;
13327;SDS011;6733;51.044;3.746;2022-12-18T14:55:18;39.40;;;22.10;;
13327;SDS011;6733;51.044;3.746;2022-12-18T14:57:49;33.63;;;21.90;;
13327;SDS011;6733;51.044;3.746;2022-12-18T15:00:19;35.83;;;23.07;;
13327;SDS011;6733;51.044;3.746;2022-12-18T15:02:48;38.93;;;22.57;;
13327;SDS011;6733;51.044;3.746;2022-12-18T15:05:20;35.93;;;21.97;;
13327;SDS011;6733;51.044;3.746;2022-12-18T15:07:52;32.70;;;21.50;;
13327;SDS011;6733;51.044;3.746;2022-12-18T15:10:21;35.53;;;22.33;;
13327;SDS011;6733;51.044;3.746;2022-12-18T15:13:06;34.33;;;21.70;;
13327;SDS011;6733;51.044;3.746;2022-12-18T15:18:04;37.73;;;22.20;;
13327;SDS011;6733;51.044;3.746;2022-12-18T15:28:23;37.50;;;23.37;;
13327;SDS011;6733;51.044;3.746;2022-12-18T15:33:26;37.53;;;24.07;;
13327;SDS011;6733;51.044;3.746;2022-12-18T15:35:57;36.87;;;23.07;;
13327;SDS011;6733;51.044;3.746;2022-12-18T15:38:28;38.67;;;23.17;;
13327;SDS011;6733;51.044;3.746;2022-12-18T15:40:54;37.53;;;21.63;;
13327;SDS011;6733;51.044;3.746;2022-12-18T15:43:21;35.17;;;20.90;;
13327;SDS011;6733;51.044;3.746;2022-12-18T15:46:01;35.53;;;21.70;;
13327;SDS011;6733;51.044;3.746;2022-12-18T15:48:33;36.67;;;21.60;;
13327;SDS011;6733;51.044;3.746;2022-12-18T15:51:01;38.57;;;22.63;;
13327;SDS011;6733;51.044;3.746;2022-12-18T15:53:29;38.77;;;23.00;;
13327;SDS011;6733;51.044;3.746;2022-12-18T15:55:58;35.17;;;22.17;;
13327;SDS011;6733;51.044;3.746;2022-12-18T15:58:43;36.00;;;21.90;;
13327;SDS011;6733;51.044;3.746;2022-12-18T16:01:09;37.17;;;22.67;;
13327;SDS011;6733;51.044;3.746;2022-12-18T16:03:36;35.43;;;21.43;;
13327;SDS011;6733;51.044;3.746;2022-12-18T16:06:02;36.63;;;20.77;;
13327;SDS011;6733;51.044;3.746;2022-12-18T16:08:29;38.30;;;22.23;;
13327;SDS011;6733;51.044;3.746;2022-12-18T16:10:56;34.53;;;20.83;;
13327;SDS011;6733;51.044;3.746;2022-12-18T16:13:23;34.10;;;20.20;;
13327;SDS011;6733;51.044;3.746;2022-12-18T16:15:49;35.23;;;21.20;;
13327;SDS011;6733;51.044;3.746;2022-12-18T16:18:15;34.90;;;22.03;;
13327;SDS011;6733;51.044;3.746;2022-12-18T16:20:41;32.63;;;20.80;;
13327;SDS011;6733;51.044;3.746;2022-12-18T16:23:07;32.83;;;20.97;;
13327;SDS011;6733;51.044;3.746;2022-12-18T16:25:33;36.93;;;22.17;;
13327;SDS011;6733;51.044;3.746;2022-12-18T16:27:59;32.73;;;21.67;;
13327;SDS011;6733;51.044;3.746;2022-12-18T16:30:29;32.97;;;21.30;;
13327;SDS011;6733;51.044;3.746;2022-12-18T16:32:56;31.60;;;20.83;;
13327;SDS011;6733;51.044;3.746;2022-12-18T16:35:23;37.83;;;22.03;;
13327;SDS011;6733;51.044;3.746;2022-12-18T16:37:50;31.60;;;20.13;;
13327;SDS011;6733;51.044;3.746;2022-12-18T16:40:16;34.20;;;20.50;;
13327;SDS011;6733;51.044;3.746;2022-12-18T16:42:43;33.53;;;20.50;;
13327;SDS011;6733;51.044;3.746;2022-12-18T16:45:11;30.97;;;21.03;;
13327;SDS011;6733;51.044;3.746;2022-12-18T16:47:39;32.47;;;20.30;;
13327;SDS011;6733;51.044;3.746;2022-12-18T16:50:06;35.70;;;22.33;;
13327;SDS011;6733;51.044;3.746;2022-12-18T16:52:33;34.60;;;21.77;;
13327;SDS011;6733;51.044;3.746;2022-12-18T16:54:59;35.17;;;22.17;;
13327;SDS011;6733;51.044;3.746;2022-12-18T16:57:25;32.97;;;21.13;;
13327;SDS011;6733;51.044;3.746;2022-12-18T16:59:52;33.93;;;20.93;;
13327;SDS011;6733;51.044;3.746;2022-12-18T17:02:19;34.60;;;20.47;;